Time;durP1;ratioP1;P1;durP2;ratioP2;P2;SDS_P1;SDS_P2;PMS_P1;PMS_P2;Temp;Humidity;BMP_temperature;BMP_pressure;BME280_temperature;BME280_humidity;BME280_pressure;Samples;Min_cycle;Max_cycle;Signal;HPM_P1;HPM_P2
2021/09/22 00:02:07;;;;;;;4.70;1.60;;;17.90;73.90;;;;;;5096085;28;20274;-74
2021/09/22 00:04:34;;;;;;;4.28;2.05;;;17.90;73.90;;;;;;5095605;28;20087;-75
2021/09/22 00:06:59;;;;;;;4.05;1.60;;;17.80;73.80;;;;;;5092497;28;20093;-74
2021/09/22 00:09:25;;;;;;;4.03;1.52;;;17.80;73.90;;;;;;5095076;28;20171;-75
2021/09/22 00:11:51;;;;;;;5.68;2.00;;;17.80;73.90;;;;;;5095047;28;20040;-74
2021/09/22 00:14:17;;;;;;;3.08;1.60;;;17.80;73.80;;;;;;5095474;28;20527;-74
2021/09/22 00:16:43;;;;;;;4.55;1.95;;;17.80;73.80;;;;;;5095714;28;20181;-75
2021/09/22 00:19:08;;;;;;;5.05;2.05;;;17.80;73.80;;;;;;5095208;28;20036;-74
2021/09/22 00:21:34;;;;;;;3.90;1.83;;;17.80;73.80;;;;;;5077170;28;20119;-75
2021/09/22 00:24:00;;;;;;;3.83;1.60;;;17.80;73.80;;;;;;5090454;28;20044;-75
2021/09/22 00:26:26;;;;;;;4.00;2.25;;;17.80;73.90;;;;;;5074994;28;20044;-74
2021/09/22 00:28:52;;;;;;;3.65;1.55;;;17.80;73.80;;;;;;5074843;28;20120;-76
2021/09/22 00:31:17;;;;;;;3.63;1.80;;;17.80;73.80;;;;;;5075050;28;20118;-74
2021/09/22 00:33:43;;;;;;;4.03;2.05;;;17.70;73.80;;;;;;5075116;28;20128;-74
2021/09/22 00:36:09;;;;;;;3.53;1.60;;;17.70;73.80;;;;;;5057481;28;20056;-74
2021/09/22 00:38:35;;;;;;;3.78;1.80;;;17.70;73.80;;;;;;5057254;28;20028;-74
2021/09/22 00:41:00;;;;;;;6.82;2.10;;;17.70;73.80;;;;;;5075143;28;20048;-75
2021/09/22 00:43:26;;;;;;;3.80;1.77;;;17.80;73.90;;;;;;5063365;28;20063;-75
2021/09/22 00:45:52;;;;;;;3.50;1.58;;;17.70;73.90;;;;;;5074936;28;20133;-75
2021/09/22 00:48:18;;;;;;;4.90;1.80;;;17.70;73.90;;;;;;5074192;28;20052;-74
2021/09/22 00:50:44;;;;;;;2.95;1.65;;;17.70;73.80;;;;;;5075100;28;20055;-75
2021/09/22 00:53:11;;;;;;;5.43;1.80;;;17.70;73.80;;;;;;5074999;28;20317;-75
2021/09/22 00:55:40;;;;;;;4.07;1.75;;;17.70;73.80;;;;;;5075173;28;20458;-75
2021/09/22 00:58:08;;;;;;;3.60;1.73;;;17.70;73.80;;;;;;5074505;28;20372;-74
2021/09/22 01:00:37;;;;;;;3.08;1.58;;;17.70;73.80;;;;;;5074668;28;20049;-74
2021/09/22 01:03:04;;;;;;;3.25;1.80;;;17.70;73.80;;;;;;5078627;28;20052;-74
2021/09/22 01:05:31;;;;;;;3.75;1.38;;;17.70;73.80;;;;;;5078111;28;20047;-75
2021/09/22 01:07:57;;;;;;;5.15;1.70;;;17.70;73.80;;;;;;5078342;28;20342;-74
2021/09/22 01:10:23;;;;;;;3.55;1.48;;;17.70;73.80;;;;;;5044268;28;20474;-75
2021/09/22 01:12:49;;;;;;;4.70;1.60;;;17.70;73.80;;;;;;5077455;28;20044;-74
2021/09/22 01:15:29;;;;;;;3.25;1.70;;;17.70;73.80;;;;;;5078754;28;20106;-74
2021/09/22 01:17:57;;;;;;;3.38;1.60;;;17.70;73.40;;;;;;5078452;28;20118;-74
2021/09/22 01:20:23;;;;;;;7.38;1.75;;;17.70;73.90;;;;;;5078411;28;20396;-75
2021/09/22 01:22:48;;;;;;;2.67;1.30;;;17.60;73.90;;;;;;5078369;28;20131;-75
2021/09/22 01:25:14;;;;;;;3.40;1.30;;;17.60;73.70;;;;;;5078450;28;20123;-75
2021/09/22 01:27:52;;;;;;;3.35;1.48;;;17.70;73.80;;;;;;5078275;28;20123;-75
2021/09/22 01:30:18;;;;;;;3.35;1.60;;;17.60;73.70;;;;;;5078299;28;20047;-74
2021/09/22 01:33:05;;;;;;;4.93;1.88;;;17.60;73.80;;;;;;5060605;28;20452;-75
2021/09/22 01:35:39;;;;;;;3.38;1.35;;;17.70;73.90;;;;;;5077958;28;20333;-74
2021/09/22 01:38:10;;;;;;;4.63;1.48;;;17.60;73.60;;;;;;5060831;28;20041;-74
2021/09/22 01:40:38;;;;;;;3.63;1.20;;;17.60;73.90;;;;;;5060558;28;20051;-75
2021/09/22 01:43:05;;;;;;;2.95;1.23;;;17.60;73.80;;;;;;5077872;28;20048;-75
2021/09/22 01:45:32;;;;;;;3.83;1.50;;;17.70;74.20;;;;;;5077972;28;20048;-75
2021/09/22 01:47:59;;;;;;;4.85;1.58;;;17.70;73.90;;;;;;5056222;28;20044;-74
2021/09/22 01:50:25;;;;;;;2.60;1.15;;;17.70;73.80;;;;;;5057558;28;20053;-75
2021/09/22 01:52:52;;;;;;;3.92;1.48;;;17.70;73.70;;;;;;5057919;28;20056;-75
2021/09/22 01:55:21;;;;;;;3.63;1.63;;;17.70;73.80;;;;;;5056870;28;20052;-75
2021/09/22 01:57:47;;;;;;;2.13;1.10;;;17.70;73.70;;;;;;5058453;28;20398;-75
2021/09/22 02:00:13;;;;;;;3.28;1.40;;;17.70;73.70;;;;;;5056500;28;20056;-74
2021/09/22 02:02:40;;;;;;;4.00;1.50;;;17.70;73.80;;;;;;5057376;28;20044;-74
2021/09/22 02:05:06;;;;;;;5.97;1.50;;;17.70;73.70;;;;;;5057325;28;20048;-75
2021/09/22 02:07:32;;;;;;;2.03;1.13;;;17.70;73.80;;;;;;5057627;28;20041;-75
2021/09/22 02:09:59;;;;;;;3.05;1.85;;;17.70;73.60;;;;;;5057443;28;20341;-74
2021/09/22 02:12:26;;;;;;;3.72;1.13;;;17.70;73.70;;;;;;5055287;28;20120;-75
2021/09/22 02:14:52;;;;;;;2.58;1.10;;;17.70;73.70;;;;;;5057196;28;20132;-75
2021/09/22 02:17:17;;;;;;;3.10;1.48;;;17.70;73.60;;;;;;5057559;28;20422;-75
2021/09/22 02:19:44;;;;;;;2.70;1.38;;;17.60;73.50;;;;;;5057146;28;20052;-75
2021/09/22 02:22:10;;;;;;;4.47;1.60;;;17.70;73.60;;;;;;5057173;28;20348;-75
2021/09/22 02:24:42;;;;;;;4.40;1.85;;;17.60;73.60;;;;;;5057156;28;20067;-75
2021/09/22 02:27:12;;;;;;;3.72;1.02;;;17.70;73.60;;;;;;5056259;28;20086;-74
2021/09/22 02:29:39;;;;;;;3.60;1.08;;;17.60;73.60;;;;;;5057635;28;20099;-74
2021/09/22 02:32:06;;;;;;;3.33;1.15;;;17.60;73.60;;;;;;5057283;28;20065;-75
2021/09/22 02:34:32;;;;;;;3.25;1.20;;;17.60;73.60;;;;;;5057383;28;20045;-75
2021/09/22 02:36:58;;;;;;;3.10;1.50;;;17.60;73.60;;;;;;5056092;28;20417;-75
2021/09/22 02:39:24;;;;;;;3.88;1.70;;;17.60;73.60;;;;;;5057033;28;20080;-75
2021/09/22 02:41:50;;;;;;;4.00;1.33;;;17.60;73.60;;;;;;5056947;28;20032;-75
2021/09/22 02:44:16;;;;;;;4.90;1.67;;;17.60;73.60;;;;;;5055683;28;20470;-75
2021/09/22 02:46:41;;;;;;;2.85;1.25;;;17.60;73.70;;;;;;5059951;28;20045;-75
2021/09/22 02:49:07;;;;;;;2.75;1.17;;;17.60;73.60;;;;;;5059074;28;20055;-75
2021/09/22 02:51:33;;;;;;;2.67;1.35;;;17.60;73.60;;;;;;5076703;28;20044;-74
2021/09/22 02:53:59;;;;;;;4.57;1.45;;;17.60;73.60;;;;;;5077360;28;20332;-75
2021/09/22 02:56:25;;;;;;;3.45;1.85;;;17.60;73.70;;;;;;5076490;28;20052;-74
2021/09/22 02:58:51;;;;;;;3.38;1.60;;;17.60;73.50;;;;;;5076744;28;20045;-74
2021/09/22 03:01:16;;;;;;;3.58;1.50;;;17.60;73.40;;;;;;5076337;28;20155;-75
2021/09/22 03:03:42;;;;;;;3.05;1.48;;;17.60;73.50;;;;;;5063524;28;20040;-75
2021/09/22 03:06:09;;;;;;;3.85;1.48;;;17.60;73.60;;;;;;5089057;28;20351;-74
2021/09/22 03:08:35;;;;;;;3.63;1.90;;;17.50;73.60;;;;;;5095353;28;20055;-75
2021/09/22 03:11:06;;;;;;;4.28;1.38;;;17.50;73.60;;;;;;5096470;28;20044;-75
2021/09/22 03:13:31;;;;;;;2.35;1.45;;;17.50;73.70;;;;;;5095993;28;20047;-74
2021/09/22 03:15:57;;;;;;;3.03;1.60;;;17.50;73.60;;;;;;5096353;28;20519;-75
2021/09/22 03:18:23;;;;;;;5.20;1.52;;;17.50;73.60;;;;;;5062358;28;20054;-74
2021/09/22 03:20:49;;;;;;;4.95;1.52;;;17.50;73.70;;;;;;5078771;28;20054;-74
2021/09/22 03:23:15;;;;;;;3.75;1.92;;;17.50;73.70;;;;;;5095500;28;20038;-75
2021/09/22 03:25:40;;;;;;;3.90;1.80;;;17.50;73.70;;;;;;5096012;28;20050;-74
2021/09/22 03:28:06;;;;;;;3.67;1.20;;;17.50;73.70;;;;;;5096277;28;20059;-74
2021/09/22 03:30:32;;;;;;;3.40;1.83;;;17.50;73.70;;;;;;5096061;28;20091;-75
2021/09/22 03:32:57;;;;;;;2.95;1.63;;;17.50;73.80;;;;;;5096247;28;20411;-74
2021/09/22 03:35:24;;;;;;;3.22;1.63;;;17.50;73.80;;;;;;5078504;28;20324;-75
2021/09/22 03:37:49;;;;;;;5.07;1.95;;;17.50;73.80;;;;;;5095870;28;20044;-75
2021/09/22 03:40:15;;;;;;;4.75;2.10;;;17.50;73.80;;;;;;5096092;28;20352;-74
2021/09/22 03:42:41;;;;;;;7.03;2.17;;;17.50;73.70;;;;;;5095700;28;20046;-74
2021/09/22 03:45:07;;;;;;;2.80;1.50;;;17.50;73.80;;;;;;5096171;28;20319;-74
2021/09/22 03:47:33;;;;;;;3.22;1.80;;;17.50;73.80;;;;;;5095833;28;20056;-75
2021/09/22 03:49:59;;;;;;;3.72;1.63;;;17.40;73.80;;;;;;5077437;28;20052;-75
2021/09/22 03:52:25;;;;;;;4.03;1.80;;;17.40;73.70;;;;;;5078021;28;20055;-75
2021/09/22 03:54:50;;;;;;;3.28;1.85;;;17.40;73.80;;;;;;5095703;28;20040;-75
2021/09/22 03:57:16;;;;;;;4.35;1.90;;;17.40;73.80;;;;;;5096112;28;20047;-74
2021/09/22 03:59:42;;;;;;;2.85;1.75;;;17.50;73.80;;;;;;5095533;28;20055;-75
2021/09/22 04:02:08;;;;;;;6.03;2.13;;;17.40;73.70;;;;;;5071812;28;20059;-75
2021/09/22 04:04:34;;;;;;;4.38;2.08;;;17.40;73.70;;;;;;5075402;28;20177;-74
2021/09/22 04:07:00;;;;;;;4.15;1.75;;;17.40;73.70;;;;;;5057452;28;20062;-74
2021/09/22 04:09:26;;;;;;;3.92;1.90;;;17.50;73.70;;;;;;5075223;28;20032;-75
2021/09/22 04:11:52;;;;;;;3.85;1.60;;;17.50;73.70;;;;;;5075000;28;20083;-74
2021/09/22 04:14:18;;;;;;;2.70;1.60;;;17.50;73.60;;;;;;5074965;28;20090;-74
2021/09/22 04:16:44;;;;;;;4.63;1.58;;;17.50;73.60;;;;;;5075060;28;20044;-75
2021/09/22 04:19:09;;;;;;;3.85;2.03;;;17.50;73.60;;;;;;5074901;28;20136;-75
2021/09/22 04:21:35;;;;;;;3.70;1.90;;;17.50;73.50;;;;;;5084751;28;20036;-75
2021/09/22 04:24:01;;;;;;;3.30;1.80;;;17.50;73.50;;;;;;5076461;28;20118;-74
2021/09/22 04:26:27;;;;;;;2.88;1.75;;;17.50;73.40;;;;;;5074832;28;20390;-75
2021/09/22 04:28:53;;;;;;;3.95;2.10;;;17.50;73.40;;;;;;5091634;28;20379;-71
2021/09/22 04:31:19;;;;;;;4.63;2.05;;;17.50;73.20;;;;;;5102386;28;20032;-73
2021/09/22 04:33:44;;;;;;;4.43;1.98;;;17.50;73.10;;;;;;5101230;28;20085;-75
2021/09/22 04:36:11;;;;;;;2.90;2.22;;;17.40;73.10;;;;;;5077639;28;20051;-74
2021/09/22 04:38:37;;;;;;;3.17;2.10;;;17.50;73.00;;;;;;5099306;28;20152;-74
2021/09/22 04:41:03;;;;;;;5.25;2.17;;;17.50;73.30;;;;;;5099167;28;20054;-72
2021/09/22 04:43:29;;;;;;;5.70;2.40;;;17.40;73.00;;;;;;5098910;28;20044;-72
2021/09/22 04:45:54;;;;;;;5.05;2.10;;;17.30;73.20;;;;;;5099777;28;20094;-73
2021/09/22 04:48:20;;;;;;;6.55;3.95;;;17.40;73.60;;;;;;5099215;28;20056;-73
2021/09/22 04:50:46;;;;;;;7.88;4.47;;;17.50;72.30;;;;;;5081466;28;20424;-74
2021/09/22 04:53:11;;;;;;;6.32;4.63;;;17.50;71.10;;;;;;5081254;28;20064;-73
2021/09/22 04:55:37;;;;;;;6.32;4.28;;;17.50;70.50;;;;;;5098700;28;20051;-75
2021/09/22 04:58:03;;;;;;;6.18;4.50;;;17.30;70.40;;;;;;5098911;28;20119;-72
2021/09/22 05:00:29;;;;;;;7.60;4.75;;;17.30;70.20;;;;;;5098841;28;20458;-73
2021/09/22 05:02:55;;;;;;;11.77;4.35;;;17.20;70.30;;;;;;5098756;28;20076;-75
2021/09/22 05:05:21;;;;;;;6.00;4.13;;;17.20;70.40;;;;;;5099124;28;20085;-74
2021/09/22 05:07:46;;;;;;;6.85;4.80;;;17.10;70.50;;;;;;5098887;28;20082;-73
2021/09/22 05:10:12;;;;;;;6.45;4.38;;;17.10;70.60;;;;;;5098916;28;20044;-74
2021/09/22 05:12:38;;;;;;;7.85;4.65;;;17.00;70.50;;;;;;5099190;28;20112;-73
2021/09/22 05:15:05;;;;;;;6.93;4.75;;;16.90;70.50;;;;;;5098652;28;20058;-73
2021/09/22 05:17:31;;;;;;;5.70;4.82;;;16.90;70.60;;;;;;5081255;28;20062;-74
2021/09/22 05:19:56;;;;;;;8.25;4.97;;;16.80;70.70;;;;;;5098637;28;20048;-74
2021/09/22 05:22:22;;;;;;;11.35;6.03;;;16.80;71.00;;;;;;5080843;28;20044;-72
2021/09/22 05:24:48;;;;;;;9.00;5.65;;;16.80;71.00;;;;;;5098823;28;20056;-71
2021/09/22 05:27:14;;;;;;;9.30;6.00;;;16.80;71.00;;;;;;5080542;28;20076;-71
2021/09/22 05:29:40;;;;;;;8.32;5.82;;;16.70;71.00;;;;;;5098237;28;20082;-72
2021/09/22 05:32:06;;;;;;;7.57;5.93;;;16.70;71.10;;;;;;5098384;28;20090;-71
2021/09/22 05:34:32;;;;;;;6.25;5.63;;;16.60;71.50;;;;;;5080665;28;20123;-72
2021/09/22 05:36:57;;;;;;;7.55;4.75;;;16.60;71.80;;;;;;5098469;28;20127;-72
2021/09/22 05:39:23;;;;;;;6.80;4.90;;;16.50;72.50;;;;;;5098171;28;20118;-72
2021/09/22 05:41:49;;;;;;;9.30;4.38;;;16.60;73.30;;;;;;5098504;28;20119;-70
2021/09/22 05:44:15;;;;;;;11.50;4.65;;;16.70;73.70;;;;;;5097786;28;20040;-71
2021/09/22 05:46:41;;;;;;;8.20;3.75;;;16.80;73.70;;;;;;5079801;28;20059;-72
2021/09/22 05:49:07;;;;;;;11.75;3.70;;;16.90;73.50;;;;;;5098289;28;20087;-71
2021/09/22 05:51:33;;;;;;;11.57;3.97;;;16.90;73.30;;;;;;5097919;28;20106;-71
2021/09/22 05:53:59;;;;;;;5.53;3.30;;;16.90;73.50;;;;;;5078759;28;20442;-72
2021/09/22 05:56:25;;;;;;;9.13;3.80;;;16.90;73.40;;;;;;5078059;28;20074;-72
2021/09/22 05:58:51;;;;;;;11.68;4.07;;;16.90;73.40;;;;;;5077604;28;20059;-74
2021/09/22 06:01:17;;;;;;;10.38;4.05;;;16.90;73.70;;;;;;5059762;28;20044;-79
2021/09/22 06:03:43;;;;;;;9.70;4.47;;;16.90;73.70;;;;;;5077102;28;20044;-73
2021/09/22 06:06:09;;;;;;;13.75;3.30;;;17.00;73.70;;;;;;5076842;28;20182;-73
2021/09/22 06:08:35;;;;;;;14.43;2.33;;;17.10;74.70;;;;;;5077249;28;20044;-73
2021/09/22 06:11:01;;;;;;;9.15;2.20;;;17.30;74.40;;;;;;5042946;28;20059;-73
2021/09/22 06:13:28;;;;;;;8.07;2.75;;;17.50;74.20;;;;;;5077316;28;20048;-73
2021/09/22 06:15:54;;;;;;;7.18;2.78;;;17.60;73.90;;;;;;5077020;28;20052;-73
2021/09/22 06:18:20;;;;;;;11.82;2.40;;;17.60;73.60;;;;;;5077000;28;20079;-72
2021/09/22 06:20:46;;;;;;;8.10;1.95;;;17.70;73.40;;;;;;5076937;28;20102;-72
2021/09/22 06:23:13;;;;;;;5.93;1.52;;;17.80;73.20;;;;;;5076844;28;20481;-73
2021/09/22 06:25:38;;;;;;;5.60;2.45;;;17.80;73.00;;;;;;5077489;28;20040;-72
2021/09/22 06:28:04;;;;;;;7.65;1.85;;;17.90;73.00;;;;;;5076626;28;20086;-72
2021/09/22 06:30:30;;;;;;;8.35;2.08;;;17.90;72.80;;;;;;5076827;28;20048;-72
2021/09/22 06:32:56;;;;;;;6.20;2.17;;;17.90;72.70;;;;;;5076971;28;20041;-74
2021/09/22 06:35:22;;;;;;;6.18;2.28;;;18.00;72.70;;;;;;5076303;28;20075;-73
2021/09/22 06:37:52;;;;;;;9.60;1.90;;;18.00;72.60;;;;;;5076591;28;20048;-74
2021/09/22 06:40:19;;;;;;;9.48;2.70;;;18.00;72.70;;;;;;5076613;28;20044;-74
2021/09/22 06:42:48;;;;;;;8.25;1.92;;;18.00;72.70;;;;;;5076725;28;20056;-74
2021/09/22 06:45:16;;;;;;;6.13;1.90;;;18.00;72.70;;;;;;5076745;28;20397;-75
2021/09/22 06:47:41;;;;;;;6.18;1.98;;;18.00;72.80;;;;;;5058640;28;20056;-74
2021/09/22 06:50:08;;;;;;;6.80;1.58;;;18.10;72.80;;;;;;5076432;28;20405;-74
2021/09/22 06:52:35;;;;;;;4.45;1.73;;;18.00;72.80;;;;;;5076409;28;20044;-73
2021/09/22 06:55:01;;;;;;;2.78;1.83;;;18.10;72.90;;;;;;5076338;28;20051;-75
2021/09/22 06:57:27;;;;;;;4.28;1.95;;;18.10;73.00;;;;;;5076257;28;20044;-74
2021/09/22 06:59:53;;;;;;;4.78;2.00;;;18.10;73.10;;;;;;5088166;28;20040;-72
2021/09/22 07:02:19;;;;;;;4.82;1.65;;;18.10;73.60;;;;;;5078453;28;20051;-72
2021/09/22 07:04:44;;;;;;;5.45;1.50;;;18.10;73.00;;;;;;5095929;28;20044;-73
2021/09/22 07:07:10;;;;;;;5.63;1.80;;;18.10;72.90;;;;;;5076074;28;20489;-73
2021/09/22 07:09:36;;;;;;;5.07;2.22;;;18.20;72.90;;;;;;5076163;28;20047;-73
2021/09/22 07:12:02;;;;;;;3.35;1.20;;;18.30;72.90;;;;;;5076019;28;20054;-73
2021/09/22 07:14:28;;;;;;;7.50;2.08;;;18.30;72.90;;;;;;5075862;28;20046;-74
2021/09/22 07:16:54;;;;;;;4.65;2.30;;;18.30;72.80;;;;;;5075955;28;20123;-73
2021/09/22 07:19:20;;;;;;;6.70;2.45;;;18.30;72.80;;;;;;5075856;28;20051;-73
2021/09/22 07:21:46;;;;;;;5.00;1.70;;;18.40;72.80;;;;;;5075590;28;20343;-74
2021/09/22 07:24:12;;;;;;;4.95;1.90;;;18.40;72.90;;;;;;5076281;28;20419;-74
2021/09/22 07:26:38;;;;;;;5.55;2.28;;;18.40;72.90;;;;;;5075471;28;20185;-74
2021/09/22 07:29:07;;;;;;;7.40;1.90;;;18.40;72.90;;;;;;5075849;28;20053;-74
2021/09/22 07:31:33;;;;;;;5.05;1.65;;;18.40;72.90;;;;;;5075950;28;20048;-75
2021/09/22 07:33:59;;;;;;;6.10;1.92;;;18.40;73.00;;;;;;5075428;28;20036;-74
2021/09/22 07:36:25;;;;;;;4.07;2.03;;;18.40;72.90;;;;;;5075510;28;20033;-73
2021/09/22 07:38:51;;;;;;;4.85;2.08;;;18.40;72.90;;;;;;5075251;28;20043;-75
2021/09/22 07:41:16;;;;;;;2.85;1.63;;;18.40;72.90;;;;;;5075693;28;20521;-73
2021/09/22 07:43:42;;;;;;;4.90;2.17;;;18.40;72.90;;;;;;5075355;28;20391;-74
2021/09/22 07:46:08;;;;;;;3.17;1.42;;;18.40;72.80;;;;;;5075398;28;20040;-74
2021/09/22 07:48:35;;;;;;;3.03;1.63;;;18.40;72.80;;;;;;5074855;28;20344;-74
2021/09/22 07:51:01;;;;;;;3.80;2.00;;;18.40;72.90;;;;;;5057871;28;20063;-75
2021/09/22 07:53:27;;;;;;;3.88;1.58;;;18.40;72.90;;;;;;5057769;28;20078;-75
2021/09/22 07:55:53;;;;;;;4.43;2.45;;;18.40;72.90;;;;;;5075406;28;20045;-75
2021/09/22 07:58:19;;;;;;;3.40;1.90;;;18.40;73.00;;;;;;5057662;28;20413;-74
2021/09/22 08:00:46;;;;;;;4.60;2.25;;;18.40;73.10;;;;;;5057946;28;20048;-75
2021/09/22 08:03:11;;;;;;;4.38;2.00;;;18.40;73.20;;;;;;5074896;28;20039;-74
2021/09/22 08:05:40;;;;;;;3.97;2.13;;;18.40;73.40;;;;;;5075492;28;20040;-73
2021/09/22 08:08:08;;;;;;;3.30;1.88;;;18.40;73.60;;;;;;5075568;28;20114;-74
2021/09/22 08:10:35;;;;;;;3.75;2.03;;;18.40;73.70;;;;;;5075160;28;20444;-73
2021/09/22 08:13:01;;;;;;;3.72;1.88;;;18.50;73.90;;;;;;5075032;28;20043;-74
2021/09/22 08:15:27;;;;;;;3.08;1.85;;;18.50;73.90;;;;;;5058125;28;20040;-75
2021/09/22 08:17:53;;;;;;;4.18;1.70;;;18.50;74.10;;;;;;5074842;28;20106;-74
2021/09/22 08:20:18;;;;;;;4.97;1.73;;;18.50;74.00;;;;;;5057573;28;20102;-74
2021/09/22 08:22:45;;;;;;;3.42;1.85;;;18.50;74.60;;;;;;5074958;28;20045;-75
2021/09/22 08:25:11;;;;;;;3.83;2.10;;;18.50;74.00;;;;;;5075291;28;20037;-73
2021/09/22 08:27:37;;;;;;;4.05;2.00;;;18.50;73.90;;;;;;5040673;28;20113;-73
2021/09/22 08:30:05;;;;;;;3.20;2.00;;;18.50;73.90;;;;;;5074993;28;20052;-74
2021/09/22 08:32:31;;;;;;;5.22;1.95;;;18.50;73.80;;;;;;5074710;28;20102;-74
2021/09/22 08:34:57;;;;;;;3.45;2.30;;;18.60;73.90;;;;;;5074326;28;20044;-76
2021/09/22 08:37:23;;;;;;;3.28;2.30;;;18.60;73.90;;;;;;5057392;28;20052;-75
2021/09/22 08:39:48;;;;;;;3.28;1.67;;;18.60;73.90;;;;;;5040817;28;20048;-73
2021/09/22 08:42:14;;;;;;;4.28;2.40;;;18.60;73.80;;;;;;5074628;28;20059;-74
2021/09/22 08:44:41;;;;;;;3.50;1.88;;;18.60;73.80;;;;;;5074482;28;20040;-74
2021/09/22 08:47:07;;;;;;;3.50;1.90;;;18.60;73.80;;;;;;5075011;28;20440;-74
2021/09/22 08:49:33;;;;;;;4.68;2.42;;;18.60;73.80;;;;;;5074720;28;20131;-74
2021/09/22 08:51:58;;;;;;;3.67;2.55;;;18.60;73.90;;;;;;5057360;28;20056;-73
2021/09/22 08:54:24;;;;;;;4.07;2.05;;;18.60;73.90;;;;;;5074718;28;20332;-74
2021/09/22 08:56:50;;;;;;;4.28;2.10;;;18.60;73.90;;;;;;5074595;28;20040;-74
2021/09/22 08:59:16;;;;;;;3.22;2.20;;;18.60;73.80;;;;;;5075078;28;20382;-74
2021/09/22 09:02:02;;;;;;;3.95;1.83;;;18.60;73.80;;;;;;5074680;28;20123;-80
2021/09/22 09:04:28;;;;;;;4.70;3.00;;;18.60;73.70;;;;;;5039820;28;20036;-79
2021/09/22 09:06:57;;;;;;;4.32;2.60;;;18.70;73.80;;;;;;5074708;28;20090;-83
2021/09/22 09:09:40;;;;;;;8.52;4.60;;;18.70;74.00;;;;;;5074848;28;20075;-74
2021/09/22 09:12:22;;;;;;;16.52;7.45;;;18.70;74.80;;;;;;5074715;28;20084;-74
2021/09/22 09:14:52;;;;;;;11.50;5.85;;;18.60;75.10;;;;;;5074701;28;20067;-74
2021/09/22 09:17:52;;;;;;;11.73;5.82;;;18.60;74.90;;;;;;5074443;28;20435;-74
2021/09/22 09:20:22;;;;;;;14.32;5.97;;;18.60;75.10;;;;;;5074376;28;20044;-74
2021/09/22 09:23:04;;;;;;;9.25;4.95;;;18.60;75.00;;;;;;5076328;28;20048;-75
2021/09/22 09:25:35;;;;;;;10.35;5.28;;;18.50;75.00;;;;;;5078261;28;20046;-71
2021/09/22 09:28:23;;;;;;;12.25;4.80;;;18.50;75.10;;;;;;5078245;28;20044;-72
2021/09/22 09:30:54;;;;;;;7.03;3.60;;;18.50;75.50;;;;;;5077996;28;20044;-73
2021/09/22 09:33:35;;;;;;;7.80;3.58;;;18.50;75.20;;;;;;5078236;28;20084;-72
2021/09/22 09:36:24;;;;;;;6.70;3.95;;;18.50;75.40;;;;;;5077907;28;20036;-73
2021/09/22 09:39:11;;;;;;;8.90;4.32;;;18.50;75.40;;;;;;5077912;28;20040;-73
2021/09/22 09:41:50;;;;;;;7.93;3.95;;;18.50;75.50;;;;;;5071057;28;20043;-72
2021/09/22 09:44:22;;;;;;;10.93;3.92;;;18.40;75.40;;;;;;5098011;28;20177;-72
2021/09/22 09:46:51;;;;;;;6.43;3.20;;;18.40;75.40;;;;;;5098013;28;20386;-72
2021/09/22 09:49:22;;;;;;;9.52;3.97;;;18.50;75.50;;;;;;5080233;28;20051;-72
2021/09/22 09:51:55;;;;;;;7.05;3.22;;;18.40;75.40;;;;;;5097998;28;20047;-78
2021/09/22 09:54:29;;;;;;;6.72;3.70;;;18.50;75.30;;;;;;5098213;28;20413;-79
2021/09/22 09:56:56;;;;;;;6.82;3.80;;;18.50;75.30;;;;;;5098202;28;20126;-72
2021/09/22 09:59:24;;;;;;;8.93;3.42;;;18.50;75.40;;;;;;5098058;28;20134;-71
2021/09/22 10:01:52;;;;;;;8.50;3.70;;;18.50;75.40;;;;;;5097676;28;20093;-71
2021/09/22 10:04:20;;;;;;;6.75;2.97;;;18.50;75.40;;;;;;5097686;28;20066;-72
2021/09/22 10:06:47;;;;;;;5.45;3.03;;;18.50;75.90;;;;;;5097776;28;20508;-71
2021/09/22 10:09:13;;;;;;;4.80;3.00;;;18.50;75.30;;;;;;5097597;28;20040;-71
2021/09/22 10:11:44;;;;;;;6.80;2.95;;;18.50;75.20;;;;;;5097423;28;20065;-72
2021/09/22 10:14:15;;;;;;;9.02;3.20;;;18.50;75.30;;;;;;5097611;28;20098;-72
2021/09/22 10:16:42;;;;;;;6.78;3.10;;;18.50;75.30;;;;;;5097388;28;20075;-72
2021/09/22 10:19:08;;;;;;;5.90;2.80;;;18.50;75.20;;;;;;5097412;28;20040;-70
2021/09/22 10:21:37;;;;;;;6.07;3.22;;;18.50;75.20;;;;;;5097224;28;20466;-71
2021/09/22 10:24:07;;;;;;;7.10;2.70;;;18.50;75.10;;;;;;5079623;28;20119;-71
2021/09/22 10:26:33;;;;;;;4.90;2.80;;;18.50;75.10;;;;;;5097475;28;20166;-72
2021/09/22 10:29:00;;;;;;;4.90;2.60;;;18.50;75.10;;;;;;5097664;28;20085;-72
2021/09/22 10:31:29;;;;;;;6.57;3.20;;;18.50;75.00;;;;;;5079558;28;20337;-71
2021/09/22 10:33:57;;;;;;;5.15;2.42;;;18.50;75.00;;;;;;5095744;28;20048;-71
2021/09/22 10:36:43;;;;;;;4.43;2.65;;;18.50;75.00;;;;;;5097576;28;20383;-70
2021/09/22 10:39:23;;;;;;;4.80;2.60;;;18.60;74.90;;;;;;5097205;28;20046;-70
2021/09/22 10:41:48;;;;;;;6.82;3.20;;;18.60;75.10;;;;;;5096985;28;20043;-77
2021/09/22 10:44:35;;;;;;;8.50;3.25;;;18.60;75.00;;;;;;5096787;28;20044;-75
2021/09/22 10:47:32;;;;;;;8.90;2.92;;;18.60;74.70;;;;;;5097419;28;20056;-70
2021/09/22 10:49:58;;;;;;;12.20;3.70;;;18.70;74.80;;;;;;5096996;28;20048;-70
2021/09/22 10:52:39;;;;;;;19.90;4.07;;;18.70;74.70;;;;;;5096865;28;20339;-71
2021/09/22 10:55:17;;;;;;;7.55;3.00;;;18.70;74.50;;;;;;5079024;28;20047;-70
2021/09/22 10:57:45;;;;;;;5.95;3.22;;;18.70;74.40;;;;;;5096768;28;20495;-71
2021/09/22 11:00:13;;;;;;;7.95;3.05;;;18.70;74.50;;;;;;5096880;28;20411;-71
2021/09/22 11:02:48;;;;;;;7.85;3.60;;;18.70;74.50;;;;;;5097263;28;20051;-71
2021/09/22 11:05:26;;;;;;;8.60;3.38;;;18.70;74.50;;;;;;5096392;28;20097;-70
2021/09/22 11:07:52;;;;;;;7.07;3.05;;;18.80;74.50;;;;;;5096303;28;20296;-71
2021/09/22 11:10:52;;;;;;;6.32;2.85;;;18.80;74.50;;;;;;5078601;28;20123;-70
2021/09/22 11:13:30;;;;;;;6.90;3.17;;;18.80;74.60;;;;;;5096132;28;20119;-70
2021/09/22 11:16:08;;;;;;;8.50;3.10;;;18.80;74.60;;;;;;5096137;28;20040;-70
2021/09/22 11:18:33;;;;;;;9.48;3.05;;;18.80;74.60;;;;;;5096026;28;20039;-70
2021/09/22 11:21:01;;;;;;;5.32;2.70;;;18.70;74.60;;;;;;5096471;28;20044;-71
2021/09/22 11:23:28;;;;;;;9.10;3.50;;;18.80;74.90;;;;;;5095527;28;20036;-70
2021/09/22 11:26:03;;;;;;;7.47;3.15;;;18.80;74.60;;;;;;5095974;28;20141;-71
2021/09/22 11:28:29;;;;;;;7.57;3.08;;;18.80;74.60;;;;;;5095841;28;20048;-70
2021/09/22 11:30:55;;;;;;;5.35;2.30;;;18.80;74.60;;;;;;5095918;28;20404;-70
2021/09/22 11:33:23;;;;;;;6.00;2.50;;;18.80;74.50;;;;;;5078463;28;20426;-71
2021/09/22 11:35:49;;;;;;;6.07;2.65;;;18.80;74.50;;;;;;5095772;28;20101;-70
2021/09/22 11:38:15;;;;;;;5.90;2.28;;;18.80;74.50;;;;;;5095853;28;20486;-70
2021/09/22 11:40:41;;;;;;;4.68;2.30;;;18.80;74.50;;;;;;5096063;28;20316;-70
2021/09/22 11:43:11;;;;;;;7.55;2.58;;;18.80;74.50;;;;;;5095843;28;20044;-71
2021/09/22 11:45:48;;;;;;;6.38;2.63;;;18.80;74.50;;;;;;5095177;28;20040;-70
2021/09/22 11:48:27;;;;;;;7.03;3.03;;;18.80;74.40;;;;;;5095399;28;20121;-70
2021/09/22 11:50:53;;;;;;;4.80;2.20;;;18.80;74.40;;;;;;5095605;28;20043;-70
2021/09/22 11:53:24;;;;;;;5.40;2.70;;;18.80;74.40;;;;;;5095259;28;20109;-71
2021/09/22 11:55:50;;;;;;;6.00;2.30;;;18.80;74.40;;;;;;5095408;28;20051;-71
2021/09/22 11:58:20;;;;;;;4.55;2.50;;;18.80;74.40;;;;;;5096002;28;20058;-71
2021/09/22 12:00:50;;;;;;;5.22;2.70;;;18.80;74.40;;;;;;5095598;28;20081;-71
2021/09/22 12:03:19;;;;;;;5.00;2.58;;;18.80;74.40;;;;;;5095745;28;20455;-70
2021/09/22 12:05:44;;;;;;;5.97;2.60;;;18.80;74.30;;;;;;5095381;28;20351;-71
2021/09/22 12:08:13;;;;;;;5.43;2.45;;;18.80;74.30;;;;;;5095488;28;20031;-70
2021/09/22 12:10:43;;;;;;;4.55;2.25;;;18.80;74.30;;;;;;5095550;28;20031;-71
2021/09/22 12:13:09;;;;;;;5.28;2.40;;;18.90;74.30;;;;;;5078368;28;20082;-70
2021/09/22 12:15:35;;;;;;;5.30;2.60;;;18.80;74.20;;;;;;5095172;28;20363;-70
2021/09/22 12:18:01;;;;;;;6.72;2.58;;;18.90;74.20;;;;;;5095834;28;20065;-70
2021/09/22 12:20:30;;;;;;;3.13;2.33;;;18.90;74.20;;;;;;5095222;28;20104;-70
2021/09/22 12:23:06;;;;;;;4.25;2.30;;;18.90;74.20;;;;;;5077623;28;20047;-70
2021/09/22 12:25:33;;;;;;;4.03;2.47;;;18.90;74.10;;;;;;5094975;28;20455;-70
2021/09/22 12:28:00;;;;;;;5.30;2.65;;;18.90;74.10;;;;;;5095127;28;20055;-70
2021/09/22 12:30:30;;;;;;;7.43;2.45;;;18.90;74.00;;;;;;5094905;28;20392;-74
2021/09/22 12:33:18;;;;;;;15.60;3.90;;;18.90;74.00;;;;;;5077117;28;20048;-75
2021/09/22 12:35:44;;;;;;;6.30;3.22;;;19.00;74.00;;;;;;5077368;28;20048;-76
2021/09/22 12:38:15;;;;;;;9.48;3.53;;;19.00;74.00;;;;;;5095205;28;20036;-76
2021/09/22 12:40:50;;;;;;;10.05;4.30;;;19.00;74.00;;;;;;5077519;28;20052;-78
2021/09/22 12:43:24;;;;;;;9.63;4.38;;;19.00;73.90;;;;;;5094914;28;20236;-75
2021/09/22 12:45:50;;;;;;;9.85;4.38;;;19.00;73.90;;;;;;5094892;28;20048;-76
2021/09/22 12:48:26;;;;;;;8.07;4.28;;;19.00;73.90;;;;;;5076998;28;20059;-76
2021/09/22 12:50:53;;;;;;;8.80;4.38;;;19.10;73.90;;;;;;5094567;28;20267;-79